Time;durP1;ratioP1;P1;durP2;ratioP2;P2;SDS_P1;SDS_P2;PMS_P1;PMS_P2;Temp;Humidity;BMP_temperature;BMP_pressure;BME280_temperature;BME280_humidity;BME280_pressure;Samples;Min_cycle;Max_cycle;Signal;HPM_P1;HPM_P2
2024/02/26 00:01:45;;;;;;;13.70;8.30;;;;;;;4.96;100.00;100673.84;86882;272;136554;-68
2024/02/26 00:03:47;;;;;;;12.60;7.10;;;;;;;5.01;100.00;100676.52;87551;279;22559;-68
2024/02/26 00:05:49;;;;;;;10.40;7.00;;;;;;;5.05;100.00;100680.02;87525;267;136830;-66
2024/02/26 00:07:50;;;;;;;9.90;6.70;;;;;;;5.06;100.00;100677.62;87548;271;22638;-70
2024/02/26 00:09:52;;;;;;;9.90;5.40;;;;;;;5.01;100.00;100673.83;86998;264;137410;-70
2024/02/26 00:11:55;;;;;;;8.80;5.80;;;;;;;4.95;100.00;100666.64;86848;273;22565;-72
2024/02/26 00:13:58;;;;;;;12.20;7.30;;;;;;;4.93;100.00;100674.99;87130;278;135847;-69
2024/02/26 00:15:59;;;;;;;12.00;7.40;;;;;;;4.87;100.00;100665.27;87185;278;25243;-69
2024/02/26 00:18:02;;;;;;;14.10;7.80;;;;;;;4.81;100.00;100652.27;86862;269;136249;-69
2024/02/26 00:20:08;;;;;;;11.70;8.10;;;;;;;4.80;100.00;100658.92;87151;267;136566;-67
2024/02/26 00:22:10;;;;;;;13.60;7.80;;;;;;;4.77;100.00;100663.24;86549;275;744950;-68
2024/02/26 00:24:12;;;;;;;10.80;7.70;;;;;;;4.78;100.00;100663.35;87118;271;137381;-67
2024/02/26 00:26:15;;;;;;;11.00;6.50;;;;;;;4.82;100.00;100667.20;87466;271;22625;-68
2024/02/26 00:28:19;;;;;;;10.50;5.40;;;;;;;4.81;100.00;100662.54;87297;271;136633;-66
2024/02/26 00:30:22;;;;;;;7.60;4.00;;;;;;;4.74;100.00;100668.75;87648;271;24069;-65
2024/02/26 00:32:24;;;;;;;11.90;5.10;;;;;;;4.71;100.00;100665.39;87211;270;136024;-67
2024/02/26 00:34:26;;;;;;;7.20;4.10;;;;;;;4.67;100.00;100664.13;87261;267;25268;-70
2024/02/26 00:36:28;;;;;;;6.70;5.00;;;;;;;4.63;100.00;100658.90;87099;271;136217;-68
2024/02/26 00:38:30;;;;;;;12.60;6.30;;;;;;;4.60;100.00;100659.69;87185;274;22642;-68
2024/02/26 00:40:32;;;;;;;7.70;5.30;;;;;;;4.59;100.00;100652.58;87353;268;136082;-66
2024/02/26 00:42:34;;;;;;;5.40;4.30;;;;;;;4.56;100.00;100661.98;87303;269;23886;-68
2024/02/26 00:44:36;;;;;;;8.20;4.30;;;;;;;4.57;100.00;100651.73;87083;267;136848;-66
2024/02/26 00:46:37;;;;;;;5.50;3.60;;;;;;;4.57;100.00;100652.55;87203;271;22571;-65
2024/02/26 00:48:39;;;;;;;6.70;3.50;;;;;;;4.57;100.00;100666.36;87120;267;136716;-66
2024/02/26 00:50:42;;;;;;;6.30;4.00;;;;;;;4.54;100.00;100656.55;87722;278;22558;-69
2024/02/26 00:52:44;;;;;;;7.50;3.50;;;;;;;4.50;100.00;100650.05;87546;266;137164;-67
2024/02/26 00:54:46;;;;;;;8.80;4.60;;;;;;;4.44;100.00;100651.82;87498;272;22562;-67
2024/02/26 00:56:48;;;;;;;6.20;3.80;;;;;;;4.42;100.00;100644.83;87507;274;136985;-66
2024/02/26 00:58:49;;;;;;;5.50;3.40;;;;;;;4.39;100.00;100644.94;87552;271;22847;-67
2024/02/26 01:00:51;;;;;;;5.20;3.30;;;;;;;4.35;100.00;100647.02;87249;268;136142;-66
2024/02/26 01:02:53;;;;;;;6.00;4.20;;;;;;;4.36;100.00;100651.70;87225;270;22559;-67
2024/02/26 01:04:55;;;;;;;6.20;3.60;;;;;;;4.38;100.00;100646.93;87117;274;137011;-69
2024/02/26 01:06:56;;;;;;;4.20;3.60;;;;;;;4.38;100.00;100655.32;87654;278;23641;-68
2024/02/26 01:08:59;;;;;;;4.70;3.20;;;;;;;4.36;100.00;100649.71;87098;267;137661;-67
2024/02/26 01:11:00;;;;;;;6.00;3.90;;;;;;;4.30;100.00;100653.10;87629;271;25194;-68
2024/02/26 01:13:02;;;;;;;11.80;4.00;;;;;;;4.26;100.00;100646.11;87388;279;135932;-66
2024/02/26 01:15:04;;;;;;;14.50;4.00;;;;;;;4.22;100.00;100644.17;87666;278;22550;-71
2024/02/26 01:17:07;;;;;;;5.60;3.80;;;;;;;4.18;100.00;100642.73;87309;274;136402;-67
2024/02/26 01:19:09;;;;;;;7.70;4.00;;;;;;;4.16;100.00;100644.71;87295;274;22568;-66
2024/02/26 01:21:11;;;;;;;7.30;4.60;;;;;;;4.17;100.00;100643.75;87180;271;136816;-67
2024/02/26 01:23:13;;;;;;;8.50;4.10;;;;;;;4.18;100.00;100645.73;87093;263;22671;-69
2024/02/26 01:25:15;;;;;;;5.10;3.80;;;;;;;4.21;100.00;100644.61;87316;271;137700;-66
2024/02/26 01:27:17;;;;;;;10.80;4.90;;;;;;;4.23;100.00;100639.27;87598;267;22550;-64
2024/02/26 01:29:19;;;;;;;8.70;4.50;;;;;;;4.19;100.00;100646.36;87540;271;136287;-65
2024/02/26 01:31:21;;;;;;;9.00;4.40;;;;;;;4.16;100.00;100650.14;87127;271;26360;-65
2024/02/26 01:33:23;;;;;;;6.10;4.70;;;;;;;4.11;100.00;100636.36;87492;266;136135;-66
2024/02/26 01:35:26;;;;;;;4.10;3.70;;;;;;;4.06;100.00;100639.39;87337;275;25271;-65
2024/02/26 01:37:29;;;;;;;5.70;4.40;;;;;;;4.01;100.00;100632.84;87073;278;136449;-67
2024/02/26 01:39:31;;;;;;;11.70;4.90;;;;;;;4.02;100.00;100642.21;87323;270;25220;-67
2024/02/26 01:41:33;;;;;;;6.50;4.70;;;;;;;4.02;100.00;100641.69;87166;269;137210;-66
2024/02/26 01:43:35;;;;;;;9.80;4.40;;;;;;;4.06;100.00;100638.23;87241;274;24119;-66
2024/02/26 01:45:36;;;;;;;10.60;5.70;;;;;;;4.10;100.00;100631.14;87115;278;136195;-67
2024/02/26 01:47:38;;;;;;;7.40;5.20;;;;;;;4.08;100.00;100633.77;87132;278;24027;-64
2024/02/26 01:49:42;;;;;;;8.70;6.70;;;;;;;4.07;100.00;100631.09;86902;271;135676;-67
2024/02/26 01:51:46;;;;;;;8.20;6.30;;;;;;;4.04;100.00;100633.25;87245;267;22642;-66
2024/02/26 01:53:48;;;;;;;10.00;5.90;;;;;;;4.03;100.00;100628.59;87112;269;136060;-66
2024/02/26 01:55:50;;;;;;;11.30;5.40;;;;;;;4.03;100.00;100629.52;87381;274;22562;-70
2024/02/26 01:57:53;;;;;;;7.80;6.00;;;;;;;3.98;100.00;100633.83;87307;278;136912;-67
2024/02/26 01:59:55;;;;;;;8.50;5.40;;;;;;;3.98;100.00;100624.05;87252;267;25111;-66
2024/02/26 02:02:01;;;;;;;10.20;5.50;;;;;;;4.02;100.00;100628.91;87164;274;137991;-72
2024/02/26 02:04:04;;;;;;;7.90;5.70;;;;;;;4.04;100.00;100611.84;87195;278;137425;-65
2024/02/26 02:06:06;;;;;;;9.00;5.80;;;;;;;4.03;100.00;100612.29;87298;268;25249;-70
2024/02/26 02:08:11;;;;;;;9.50;5.40;;;;;;;4.01;100.00;100622.65;87070;268;137081;-65
2024/02/26 02:10:14;;;;;;;;;;;;;;;3.96;100.00;100618.87;87271;274;22533;-66
2024/02/26 02:12:16;;;;;;;8.30;5.10;;;;;;;3.94;100.00;100612.59;87096;270;123831;-64
2024/02/26 02:14:18;;;;;;;10.30;5.20;;;;;;;3.92;100.00;100619.40;87481;267;25316;-70
2024/02/26 02:16:20;;;;;;;7.40;4.60;;;;;;;3.95;100.00;100618.10;87144;278;137429;-69
2024/02/26 02:18:22;;;;;;;9.50;4.90;;;;;;;3.97;100.00;100612.14;87062;267;25245;-69
2024/02/26 02:20:34;;;;;;;13.40;6.30;;;;;;;3.98;100.00;100612.63;86972;271;136251;-66
2024/02/26 02:22:36;;;;;;;11.40;5.00;;;;;;;3.96;100.00;100616.09;87533;268;26157;-69
2024/02/26 02:24:38;;;;;;;8.50;5.20;;;;;;;3.93;100.00;100616.40;87125;274;136328;-66
2024/02/26 02:26:40;;;;;;;10.50;5.40;;;;;;;3.87;100.00;100616.20;87260;271;22688;-65
2024/02/26 02:28:42;;;;;;;5.90;4.90;;;;;;;3.86;100.00;100617.15;87255;268;136419;-65
2024/02/26 02:30:44;;;;;;;7.40;4.60;;;;;;;3.87;100.00;100619.11;87074;276;22587;-68
2024/02/26 02:32:46;;;;;;;8.90;5.10;;;;;;;3.90;100.00;100625.02;86973;268;136768;-66
2024/02/26 02:34:48;;;;;;;10.50;5.40;;;;;;;3.93;100.00;100616.87;87185;279;25220;-64
2024/02/26 02:36:54;;;;;;;6.80;4.90;;;;;;;3.93;100.00;100620.23;86985;270;136555;-65
2024/02/26 02:38:56;;;;;;;9.00;5.70;;;;;;;3.91;100.00;100605.94;87133;269;22555;-63
2024/02/26 02:40:58;;;;;;;8.20;5.00;;;;;;;3.88;100.00;100609.70;87025;273;135996;-64
2024/02/26 02:43:01;;;;;;;7.80;5.40;;;;;;;3.81;100.00;100620.75;87103;274;22572;-64
2024/02/26 02:45:04;;;;;;;7.20;5.60;;;;;;;3.81;100.00;100619.56;86981;278;136214;-65
2024/02/26 02:47:06;;;;;;;8.50;5.10;;;;;;;3.80;100.00;100615.05;87138;269;22560;-64
2024/02/26 02:49:09;;;;;;;10.10;5.40;;;;;;;3.78;100.00;100609.58;87075;271;136990;-68
2024/02/26 02:51:11;;;;;;;7.80;5.60;;;;;;;3.81;100.00;100617.39;87243;267;25199;-68
2024/02/26 02:53:15;;;;;;;6.10;5.50;;;;;;;3.81;100.00;100620.39;87015;271;136479;-63
2024/02/26 02:55:18;;;;;;;8.80;5.10;;;;;;;3.82;100.00;100618.69;87163;278;24574;-66
2024/02/26 02:57:20;;;;;;;7.00;5.10;;;;;;;3.84;100.00;100623.52;87150;275;136704;-67
2024/02/26 02:59:24;;;;;;;8.20;5.40;;;;;;;3.81;100.00;100628.83;87311;274;25111;-65
2024/02/26 03:01:25;;;;;;;6.30;5.20;;;;;;;3.74;100.00;100630.03;87027;269;136217;-64
2024/02/26 03:03:28;;;;;;;8.60;6.10;;;;;;;3.72;100.00;100632.32;87176;270;22638;-65
2024/02/26 03:05:31;;;;;;;7.10;5.40;;;;;;;3.69;100.00;100628.25;87051;271;136081;-64
2024/02/26 03:07:33;;;;;;;8.70;5.20;;;;;;;3.73;100.00;100629.42;87322;278;25221;-64
2024/02/26 03:09:35;;;;;;;9.40;6.10;;;;;;;3.76;100.00;100636.89;87251;271;136967;-66
2024/02/26 03:11:37;;;;;;;9.40;5.70;;;;;;;3.77;100.00;100636.98;87130;271;25246;-64
2024/02/26 03:13:38;;;;;;;6.30;5.20;;;;;;;3.77;100.00;100641.92;87170;271;136371;-65
2024/02/26 03:15:40;;;;;;;8.20;5.70;;;;;;;3.76;100.00;100641.98;87197;266;23720;-65
2024/02/26 03:17:42;;;;;;;8.60;5.40;;;;;;;3.75;100.00;100645.21;87177;267;136401;-65
2024/02/26 03:19:46;;;;;;;9.30;4.80;;;;;;;3.74;100.00;100639.17;87160;269;25255;-67
2024/02/26 03:21:48;;;;;;;10.70;5.60;;;;;;;3.73;100.00;100645.42;87365;275;136319;-68
2024/02/26 03:23:50;;;;;;;12.20;7.40;;;;;;;3.76;100.00;100652.85;87182;274;25348;-69
2024/02/26 03:25:52;;;;;;;7.50;5.50;;;;;;;3.79;100.00;100651.71;87114;271;137220;-65
2024/02/26 03:27:54;;;;;;;13.30;7.20;;;;;;;3.81;100.00;100653.64;87367;267;22680;-65
2024/02/26 03:29:56;;;;;;;9.40;5.60;;;;;;;3.83;100.00;100646.98;86937;270;137117;-65
2024/02/26 03:31:58;;;;;;;9.40;5.40;;;;;;;3.82;100.00;100643.52;87253;278;22569;-65
2024/02/26 03:34:00;;;;;;;9.70;6.50;;;;;;;3.79;100.00;100639.77;87124;269;136065;-66
2024/02/26 03:36:02;;;;;;;10.70;7.60;;;;;;;3.77;100.00;100643.66;87445;269;25079;-69
2024/02/26 03:38:04;;;;;;;12.40;7.30;;;;;;;3.75;100.00;100645.73;87289;269;26255;-67
2024/02/26 03:40:07;;;;;;;8.30;6.10;;;;;;;3.74;100.00;100644.05;87040;269;136923;-65
2024/02/26 03:42:09;;;;;;;11.80;6.20;;;;;;;3.74;100.00;100643.72;87320;271;25307;-68
2024/02/26 03:44:11;;;;;;;11.00;5.60;;;;;;;3.74;100.00;100633.56;87107;269;137060;-67
2024/02/26 03:46:13;;;;;;;8.60;6.50;;;;;;;3.79;100.00;100635.23;87170;269;23802;-66
2024/02/26 03:48:15;;;;;;;15.60;5.90;;;;;;;3.81;100.00;100624.77;87082;266;137016;-65
2024/02/26 03:50:18;;;;;;;10.80;6.50;;;;;;;3.81;100.00;100625.69;87251;275;25130;-67
2024/02/26 03:52:20;;;;;;;9.20;5.50;;;;;;;3.76;100.00;100627.52;86904;271;135867;-68
2024/02/26 03:54:22;;;;;;;10.10;6.60;;;;;;;3.73;100.00;100626.08;87201;266;25413;-67
2024/02/26 03:56:25;;;;;;;7.80;6.30;;;;;;;3.70;100.00;100617.64;87377;278;136178;-66
2024/02/26 03:58:26;;;;;;;11.40;6.60;;;;;;;3.71;100.00;100619.67;87264;271;22576;-66
2024/02/26 04:00:30;;;;;;;13.10;6.30;;;;;;;3.73;100.00;100612.71;87010;267;137097;-65
2024/02/26 04:02:32;;;;;;;9.80;6.60;;;;;;;3.76;100.00;100614.71;87688;266;25121;-64
2024/02/26 04:04:35;;;;;;;9.10;6.20;;;;;;;3.78;100.00;100616.11;87036;269;137254;-65
2024/02/26 04:06:37;;;;;;;8.30;7.20;;;;;;;3.74;100.00;100616.79;87172;271;22576;-65
2024/02/26 04:08:39;;;;;;;8.60;6.10;;;;;;;3.65;100.00;100608.27;87031;269;136261;-65
2024/02/26 04:10:42;;;;;;;9.60;6.10;;;;;;;3.60;100.00;100607.11;87184;266;25231;-66
2024/02/26 04:12:44;;;;;;;17.70;9.00;;;;;;;3.57;100.00;100604.98;87023;278;136387;-68
2024/02/26 04:14:46;;;;;;;22.50;12.70;;;;;;;3.57;100.00;100601.85;87044;271;22576;-66
2024/02/26 04:16:51;;;;;;;29.80;14.70;;;;;;;3.60;100.00;100600.34;87048;271;137112;-66
2024/02/26 04:18:54;;;;;;;24.80;12.90;;;;;;;3.60;100.00;100595.38;86993;271;25278;-68
2024/02/26 04:20:56;;;;;;;29.10;12.90;;;;;;;3.60;100.00;100598.21;87191;278;137144;-70
2024/02/26 04:23:43;;;;;;;23.50;11.90;;;;;;;3.44;100.00;100600.46;85020;299;602848;-65
2024/02/26 04:25:45;;;;;;;17.20;10.90;;;;;;;3.33;100.00;100607.23;85797;292;135667;-67
2024/02/26 04:27:47;;;;;;;24.10;11.40;;;;;;;3.22;100.00;100612.91;86045;291;22574;-64
2024/02/26 04:29:49;;;;;;;12.40;8.60;;;;;;;3.13;100.00;100617.41;85685;288;136525;-65
2024/02/26 04:31:50;;;;;;;16.30;8.30;;;;;;;3.10;100.00;100616.64;85829;289;26331;-64
2024/02/26 04:33:52;;;;;;;15.10;8.30;;;;;;;3.08;100.00;100618.77;85751;292;137018;-70
2024/02/26 04:35:54;;;;;;;11.70;6.90;;;;;;;3.08;100.00;100628.41;86046;287;25174;-65
2024/02/26 04:37:56;;;;;;;9.30;7.20;;;;;;;3.07;100.00;100627.23;85547;291;721185;-64
2024/02/26 04:39:59;;;;;;;12.60;7.50;;;;;;;3.04;100.00;100627.52;86099;290;22690;-67
2024/02/26 04:42:03;;;;;;;8.40;6.50;;;;;;;3.00;100.00;100620.15;86823;274;136847;-71
2024/02/26 04:44:05;;;;;;;11.80;6.90;;;;;;;2.99;100.00;100625.86;86773;269;136561;-67
2024/02/26 04:46:08;;;;;;;8.40;6.10;;;;;;;2.96;100.00;100624.02;86934;265;22662;-66
2024/02/26 04:48:10;;;;;;;10.70;7.40;;;;;;;2.95;100.00;100622.31;86854;273;136404;-66
2024/02/26 04:50:12;;;;;;;11.20;7.10;;;;;;;2.93;100.00;100606.45;86974;279;24010;-69
2024/02/26 04:52:14;;;;;;;12.20;7.30;;;;;;;2.91;100.00;100612.60;86899;279;138048;-65
2024/02/26 04:54:17;;;;;;;10.10;6.90;;;;;;;2.87;100.00;100617.35;87148;271;24255;-66
2024/02/26 04:56:21;;;;;;;15.00;8.20;;;;;;;2.80;100.00;100625.14;87078;271;136015;-66
2024/02/26 04:58:23;;;;;;;14.20;7.70;;;;;;;2.74;100.00;100625.30;87074;268;22567;-65
2024/02/26 05:00:25;;;;;;;12.30;7.80;;;;;;;2.72;100.00;100623.18;86932;279;136406;-66
2024/02/26 05:02:30;;;;;;;11.20;8.00;;;;;;;2.72;100.00;100618.83;86942;272;24887;-66
2024/02/26 05:04:31;;;;;;;13.30;6.60;;;;;;;2.73;100.00;100623.84;86846;272;136558;-69
2024/02/26 05:06:33;;;;;;;12.30;7.50;;;;;;;2.76;100.00;100631.70;87374;267;22576;-65
2024/02/26 05:08:38;;;;;;;10.20;7.00;;;;;;;2.77;100.00;100636.14;87308;271;136440;-64
2024/02/26 05:10:41;;;;;;;12.90;8.70;;;;;;;2.74;100.00;100640.21;87001;280;23961;-66
2024/02/26 05:12:43;;;;;;;12.40;8.00;;;;;;;2.69;100.00;100644.02;87148;271;136131;-68
2024/02/26 05:14:45;;;;;;;13.20;7.10;;;;;;;2.63;100.00;100638.42;86968;272;22645;-68
2024/02/26 05:16:47;;;;;;;11.80;7.50;;;;;;;2.62;100.00;100642.46;86903;275;136153;-71
2024/02/26 05:18:49;;;;;;;9.80;7.50;;;;;;;2.67;100.00;100644.68;87146;275;22580;-67
2024/02/26 05:20:51;;;;;;;10.00;6.80;;;;;;;2.72;100.00;100645.50;86872;271;136257;-64
2024/02/26 05:22:53;;;;;;;11.90;7.80;;;;;;;2.75;100.00;100645.61;87400;272;26584;-71
2024/02/26 05:24:56;;;;;;;13.70;8.20;;;;;;;2.73;100.00;100645.39;86886;271;136066;-72
2024/02/26 05:27:00;;;;;;;15.20;8.70;;;;;;;2.67;100.00;100648.55;86997;272;22736;-64
2024/02/26 05:29:02;;;;;;;15.40;7.80;;;;;;;2.63;100.00;100648.91;86918;271;136018;-65
2024/02/26 05:31:04;;;;;;;11.70;7.10;;;;;;;2.64;100.00;100639.87;86971;276;25132;-66
2024/02/26 05:33:06;;;;;;;12.50;8.30;;;;;;;2.68;100.00;100649.48;87393;279;136433;-63
2024/02/26 05:35:08;;;;;;;11.60;7.30;;;;;;;2.72;100.00;100653.88;86881;281;24413;-70
2024/02/26 05:37:11;;;;;;;10.10;7.50;;;;;;;2.73;100.00;100660.13;86793;273;136167;-69
2024/02/26 05:39:13;;;;;;;9.30;6.80;;;;;;;2.77;100.00;100657.54;87207;273;23972;-68
2024/02/26 05:41:23;;;;;;;8.60;6.50;;;;;;;2.76;100.00;100657.67;87236;272;135925;-68
2024/02/26 05:43:25;;;;;;;;;;;;;;;2.69;100.00;100654.66;87568;276;25124;-65
2024/02/26 05:45:27;;;;;;;11.70;7.00;;;;;;;2.67;100.00;100657.12;87024;276;121898;-66
2024/02/26 05:47:29;;;;;;;7.50;5.90;;;;;;;2.65;100.00;100662.20;86998;277;25204;-68
2024/02/26 05:49:32;;;;;;;11.20;8.40;;;;;;;2.69;100.00;100667.84;86944;268;136585;-64
2024/02/26 05:51:34;;;;;;;14.10;8.00;;;;;;;2.73;100.00;100669.27;87052;272;25184;-65
2024/02/26 05:53:36;;;;;;;10.30;7.90;;;;;;;2.75;100.00;100664.71;86977;272;138063;-65
2024/02/26 05:55:37;;;;;;;12.80;7.90;;;;;;;2.76;100.00;100666.05;87110;279;22579;-70
2024/02/26 05:57:39;;;;;;;12.80;8.30;;;;;;;2.77;100.00;100665.43;86898;267;136955;-65
2024/02/26 05:59:41;;;;;;;15.30;8.50;;;;;;;2.75;100.00;100665.62;87388;269;22593;-65
2024/02/26 06:01:43;;;;;;;12.80;8.70;;;;;;;2.72;100.00;100672.88;86822;268;135840;-66
2024/02/26 06:03:45;;;;;;;13.30;8.70;;;;;;;2.71;100.00;100673.27;87108;271;24043;-71
2024/02/26 06:05:47;;;;;;;15.80;9.10;;;;;;;2.74;100.00;100676.77;86799;271;135573;-71
2024/02/26 06:07:48;;;;;;;13.20;8.80;;;;;;;2.80;100.00;100679.92;87452;271;22547;-66
2024/02/26 06:09:51;;;;;;;15.20;8.90;;;;;;;2.84;100.00;100686.78;87333;275;136775;-65
2024/02/26 06:11:53;;;;;;;17.60;9.90;;;;;;;2.89;100.00;100686.54;87078;275;25313;-68
2024/02/26 06:13:56;;;;;;;15.70;9.10;;;;;;;2.94;100.00;100682.98;86800;271;137274;-67
2024/02/26 06:15:57;;;;;;;13.90;9.70;;;;;;;2.99;100.00;100688.87;87404;271;22517;-68
2024/02/26 06:17:59;;;;;;;16.60;9.20;;;;;;;3.02;100.00;100695.23;87010;279;137377;-72
2024/02/26 06:20:01;;;;;;;13.50;9.00;;;;;;;3.12;100.00;100695.10;87376;280;25086;-64
2024/02/26 06:22:03;;;;;;;13.30;9.40;;;;;;;3.26;100.00;100695.53;86930;273;25072;-66
2024/02/26 06:24:05;;;;;;;14.10;8.50;;;;;;;3.38;100.00;100702.77;86858;268;136216;-66
2024/02/26 06:26:07;;;;;;;18.10;8.70;;;;;;;3.46;100.00;100688.02;86917;276;25153;-65
2024/02/26 06:28:09;;;;;;;13.90;9.10;;;;;;;3.49;100.00;100691.58;87072;276;137752;-65
2024/02/26 06:30:12;;;;;;;13.90;9.10;;;;;;;3.51;100.00;100689.14;87192;271;24414;-66
2024/02/26 06:32:14;;;;;;;13.70;9.60;;;;;;;3.47;100.00;100694.17;87329;274;136683;-66
2024/02/26 06:34:15;;;;;;;21.40;10.50;;;;;;;3.46;100.00;100688.91;86991;268;22645;-67
2024/02/26 06:36:17;;;;;;;22.40;12.20;;;;;;;3.47;100.00;100706.70;87208;268;136502;-65
2024/02/26 06:38:19;;;;;;;18.10;10.00;;;;;;;3.50;100.00;100701.84;87170;271;24001;-66
2024/02/26 06:40:22;;;;;;;13.50;10.50;;;;;;;3.47;100.00;100687.75;86902;272;135894;-66
2024/02/26 06:42:23;;;;;;;14.10;10.10;;;;;;;3.47;100.00;100700.40;87172;275;25126;-73
2024/02/26 06:44:31;;;;;;;17.10;10.10;;;;;;;3.49;100.00;100684.23;87044;275;137748;-64
2024/02/26 06:46:33;;;;;;;12.90;10.70;;;;;;;3.53;100.00;100684.02;87171;271;25224;-69
2024/02/26 06:48:36;;;;;;;16.50;11.10;;;;;;;3.63;100.00;100690.15;86845;273;137807;-65
2024/02/26 06:50:39;;;;;;;20.30;11.80;;;;;;;3.72;100.00;100688.01;87484;268;22516;-66
2024/02/26 06:52:40;;;;;;;16.10;10.90;;;;;;;3.80;100.00;100681.70;87119;272;137141;-69
2024/02/26 06:54:42;;;;;;;15.70;11.20;;;;;;;3.86;100.00;100664.44;86726;275;22611;-72
2024/02/26 06:56:44;;;;;;;20.70;11.00;;;;;;;3.89;100.00;100676.64;87111;268;137009;-64
2024/02/26 06:58:46;;;;;;;17.20;10.40;;;;;;;3.90;100.00;100670.41;87639;275;22575;-65
2024/02/26 07:00:48;;;;;;;24.00;11.90;;;;;;;3.88;100.00;100666.72;87474;271;136615;-66
2024/02/26 07:02:49;;;;;;;22.10;10.50;;;;;;;3.86;100.00;100664.23;87504;272;24122;-69
2024/02/26 07:04:51;;;;;;;21.50;12.20;;;;;;;3.90;100.00;100658.48;87298;268;136508;-69
2024/02/26 07:06:53;;;;;;;24.40;13.70;;;;;;;3.96;100.00;100669.70;87371;267;22632;-68
2024/02/26 07:08:55;;;;;;;19.70;12.30;;;;;;;4.01;100.00;100672.09;87064;268;136147;-68
2024/02/26 07:10:57;;;;;;;23.30;13.10;;;;;;;3.98;100.00;100672.48;87081;268;22761;-64
2024/02/26 07:12:59;;;;;;;22.60;15.00;;;;;;;3.93;100.00;100666.98;87318;269;135867;-70
2024/02/26 07:15:00;;;;;;;17.00;11.90;;;;;;;3.92;100.00;100665.31;87503;277;25183;-69
2024/02/26 07:17:03;;;;;;;19.40;12.20;;;;;;;4.02;100.00;100664.06;87364;279;137634;-69
2024/02/26 07:19:05;;;;;;;16.10;11.70;;;;;;;4.16;100.00;100664.41;87454;273;25422;-68
2024/02/26 07:21:07;;;;;;;19.00;12.90;;;;;;;4.23;100.00;100665.16;86967;277;136763;-68
2024/02/26 07:23:08;;;;;;;17.70;11.70;;;;;;;4.19;100.00;100672.96;87472;280;25143;-69
2024/02/26 07:25:13;;;;;;;16.70;10.50;;;;;;;4.08;100.00;100673.77;87493;278;137200;-67
2024/02/26 07:27:17;;;;;;;17.50;12.70;;;;;;;3.96;100.00;100673.75;87583;279;24289;-72
2024/02/26 07:29:19;;;;;;;14.40;9.70;;;;;;;3.83;100.00;100672.98;87396;269;136142;-75
2024/02/26 07:31:21;;;;;;;13.60;9.70;;;;;;;3.79;100.00;100669.98;87413;277;22599;-73
2024/02/26 07:33:23;;;;;;;13.50;9.40;;;;;;;3.87;100.00;100662.98;87347;268;136626;-68
2024/02/26 07:35:25;;;;;;;23.40;12.50;;;;;;;4.02;100.00;100664.43;87049;268;25226;-70
2024/02/26 07:37:27;;;;;;;14.10;10.10;;;;;;;4.18;100.00;100668.24;87373;267;136364;-70
2024/02/26 07:39:29;;;;;;;13.90;10.80;;;;;;;4.24;100.00;100654.58;87408;279;25239;-71
2024/02/26 07:41:31;;;;;;;17.40;10.20;;;;;;;4.26;100.00;100653.30;87352;269;137290;-66
2024/02/26 07:43:33;;;;;;;21.50;12.30;;;;;;;4.24;100.00;100657.31;87618;278;22928;-71
2024/02/26 07:45:36;;;;;;;18.50;12.00;;;;;;;4.16;100.00;100658.41;87458;267;136097;-71
2024/02/26 07:47:40;;;;;;;17.40;10.50;;;;;;;4.17;100.00;100653.61;87294;271;22588;-71
2024/02/26 07:49:42;;;;;;;16.40;9.50;;;;;;;4.26;100.00;100657.02;87238;267;136534;-75
2024/02/26 07:51:44;;;;;;;14.10;9.60;;;;;;;4.44;100.00;100672.80;87650;278;26249;-72
2024/02/26 07:53:46;;;;;;;15.50;10.30;;;;;;;4.51;100.00;100668.39;87072;271;136643;-71
2024/02/26 07:55:48;;;;;;;13.50;10.20;;;;;;;4.54;100.00;100669.91;87594;267;23977;-70
2024/02/26 07:57:50;;;;;;;16.40;10.80;;;;;;;4.56;100.00;100669.38;87092;272;136249;-71
2024/02/26 07:59:51;;;;;;;13.80;10.50;;;;;;;4.60;100.00;100670.45;87264;277;22568;-70
2024/02/26 08:01:53;;;;;;;17.40;10.40;;;;;;;4.63;100.00;100670.69;87430;267;136118;-69
2024/02/26 08:03:59;;;;;;;18.40;11.50;;;;;;;4.64;100.00;100675.02;87565;271;22598;-69
2024/02/26 08:06:01;;;;;;;17.70;12.60;;;;;;;4.65;100.00;100677.05;87298;280;135930;-69
2024/02/26 08:08:03;;;;;;;16.50;10.60;;;;;;;4.66;100.00;100677.27;87424;275;137099;-69
2024/02/26 08:10:08;;;;;;;13.50;10.60;;;;;;;4.68;100.00;100676.03;87541;273;22761;-67
2024/02/26 08:12:09;;;;;;;18.20;11.80;;;;;;;4.69;100.00;100673.10;87778;267;136882;-70
2024/02/26 08:14:12;;;;;;;16.80;11.80;;;;;;;4.67;100.00;100677.70;87590;276;25560;-69
2024/02/26 08:16:13;;;;;;;20.60;12.60;;;;;;;4.66;100.00;100666.70;86993;276;136488;-69
2024/02/26 08:18:16;;;;;;;13.70;11.60;;;;;;;4.67;100.00;100670.88;87601;279;22566;-69
2024/02/26 08:20:18;;;;;;;19.60;13.70;;;;;;;4.66;100.00;100673.70;87177;272;136566;-68
2024/02/26 08:22:20;;;;;;;20.70;13.10;;;;;;;4.67;100.00;100666.59;87661;268;24203;-69
2024/02/26 08:24:23;;;;;;;15.10;12.30;;;;;;;4.71;100.00;100660.76;87311;278;136871;-70
2024/02/26 08:26:24;;;;;;;19.60;13.00;;;;;;;4.82;100.00;100663.79;87601;279;22590;-69
2024/02/26 08:28:26;;;;;;;16.60;11.40;;;;;;;4.92;100.00;100665.34;87442;275;137095;-69
2024/02/26 08:30:28;;;;;;;17.90;10.20;;;;;;;5.01;100.00;100670.52;87618;271;22581;-68
2024/02/26 08:32:30;;;;;;;14.80;9.40;;;;;;;5.09;100.00;100670.33;87401;271;135820;-69
2024/02/26 08:34:32;;;;;;;13.40;9.90;;;;;;;5.12;100.00;100661.21;87596;274;22590;-70
2024/02/26 08:36:34;;;;;;;12.50;10.30;;;;;;;5.15;100.00;100660.90;87515;275;136117;-73
2024/02/26 08:38:37;;;;;;;19.70;11.00;;;;;;;5.19;100.00;100663.89;87282;271;22596;-70
2024/02/26 08:40:38;;;;;;;13.50;10.70;;;;;;;5.24;100.00;100658.11;87390;279;136147;-73
2024/02/26 08:42:40;;;;;;;16.50;9.60;;;;;;;5.29;100.00;100662.77;87547;268;22553;-75
2024/02/26 08:44:43;;;;;;;23.40;11.70;;;;;;;5.31;100.00;100659.55;87502;271;136314;-70
2024/02/26 08:46:45;;;;;;;17.10;11.00;;;;;;;5.29;100.00;100657.83;87442;273;22759;-69
2024/02/26 08:48:47;;;;;;;19.40;12.00;;;;;;;5.25;100.00;100650.93;87370;276;136217;-73
2024/02/26 08:50:49;;;;;;;18.30;11.10;;;;;;;5.24;100.00;100654.92;87551;272;23135;-71
2024/02/26 08:52:53;;;;;;;17.50;12.50;;;;;;;5.29;100.00;100648.83;87396;269;137174;-70
2024/02/26 08:54:54;;;;;;;16.90;10.90;;;;;;;5.38;100.00;100648.46;86930;272;25086;-71
2024/02/26 08:56:57;;;;;;;16.30;10.40;;;;;;;5.49;100.00;100648.55;87351;272;136557;-74
2024/02/26 08:59:03;;;;;;;12.60;8.10;;;;;;;5.54;100.00;100655.12;87568;267;25172;-68
2024/02/26 09:01:06;;;;;;;13.60;8.90;;;;;;;5.47;100.00;100669.71;87250;268;136452;-70
2024/02/26 09:03:08;;;;;;;15.40;9.50;;;;;;;5.32;100.00;100663.33;87385;273;22587;-70
2024/02/26 09:05:11;;;;;;;11.20;9.40;;;;;;;5.19;100.00;100658.80;87030;271;136307;-70
2024/02/26 09:07:13;;;;;;;14.80;9.00;;;;;;;5.11;100.00;100661.80;87586;271;24029;-72
2024/02/26 09:09:15;;;;;;;17.30;9.90;;;;;;;5.08;100.00;100663.88;87366;271;136059;-69
2024/02/26 09:11:16;;;;;;;12.60;8.60;;;;;;;5.09;100.00;100655.33;87500;272;24150;-71
2024/02/26 09:13:20;;;;;;;13.30;8.80;;;;;;;5.16;100.00;100661.67;87450;275;138935;-76
2024/02/26 09:15:22;;;;;;;16.00;8.20;;;;;;;5.27;100.00;100665.95;87429;272;22561;-71
2024/02/26 09:17:24;;;;;;;15.60;8.70;;;;;;;5.37;100.00;100673.80;87302;273;136621;-70
2024/02/26 09:19:27;;;;;;;11.20;8.70;;;;;;;5.38;100.00;100674.57;87527;279;22579;-71
2024/02/26 09:21:30;;;;;;;16.80;9.30;;;;;;;5.36;100.00;100679.03;87451;268;135879;-72
2024/02/26 09:23:33;;;;;;;15.00;8.90;;;;;;;5.32;100.00;100672.53;87534;280;23440;-71
2024/02/26 09:25:35;;;;;;;15.90;9.80;;;;;;;5.21;100.00;100674.09;87466;275;136073;-69
2024/02/26 09:27:37;;;;;;;19.00;11.30;;;;;;;5.13;100.00;100669.89;87772;271;25243;-76